Ana Sayfa
METAR-TAF:

METAR-TAF

Havaalanları :

Lyndonville, Vermont, Amerika Birleşik Devletleri

Enlem: 44-34-09N, Boylam: 072-01-05W, yükseklik: 362 m

Güncel hava durumu gözlemi

Rapor saat 12:18 UTC de 15 dakika önce yapıldı.
Rüzgar batıdan 3 kt
Sıcaklık 16°C
Nem 72%
Basınç 1012 hPa
Görüş mesafesi: 16.1 km
Açık gökyüzü

METAR: KCDA 161218Z AUTO 28003KT 10SM CLR 16/11 A2989 RMK AO2 T01630109

Saat: 08:33 (12:33 UTC)


TAF: eksik

4.000'den fazla havaalanı için hava durumu gözlemleri ve tahminleri (METAR ve TAF raporları).

Kullanılabilir istasyonlar harita üzerinde sarı ve kırmızı noktalarla gösterilir.

İstasyonun adını görmek için fareyi noktanın üzerinde gezdirin.

Sonrasında hava gözlem ve tahminlerini görmek için tıklayın.

Haritayı değiştirmek için: yaklaştırmak için siyah artı işaretli yeşil düğmeye ve uzaklaştırmak için de eksi işaretli düğmeye hızla tıklayın; bitişik haritalar için yeşil okları kullanın.


METAR-TAF: